Seneca, IL (61360)

9:12 PM CST on December 05, 2016 (GMT -0600)
Nettle Creek UAV | | Change Station

Elev 600 ft 41.38 °N, 88.52 °W | Updated 1 minute ago

Overcast
Overcast
31.9 °F
Feels Like 24 °F
N
9.0
Wind Variable Wind from ESE

Today
High -- | Low -- °F
--% Chance of Precip.
Yesterday
High -- | Low -- °F
Precip. -- in
Pressure 29.94 in
Visibility 2.5 miles
Clouds Overcast 400 ft
Windchill 24 °F
Dew Point 31 °F
Humidity 98%
Rainfall 0.00 in
Snow Depth Not available.
7:05 AM 4:25 PM
Waxing Crescent, 37% visible
METAR KC09 060255Z AUTO 09008KT 2 1/2SM BR OVC004 00/00 A2994 RMK AO2 T00011001
Pressure 29.94 in
Visibility 2.5 miles
Clouds Overcast 400 ft
Windchill 24 °F
Dew Point 31 °F
Humidity 98%
Rainfall 0.00 in
Snow Depth Not available.
7:05 AM 4:25 PM
Waxing Crescent, 37% visible
METAR KC09 060255Z AUTO 09008KT 2 1/2SM BR OVC004 00/00 A2994 RMK AO2 T00011001

10-Day Weather Forecast

Almanac

Astronomy

Dec. 05, 2016 Rise Set
Actual Time
Civil Twilight
Nautical Twilight
Astronomical Twilight
Moon
Length of Visible Light
Length of Day
Tomorrow will be .
, % of the Moon is Illuminated

Today's Extremes

State Highs State Lows

Community

WunderPhotos

Upload Photos

1,955,900 photos uploaded!

WunderBlog® & News

Nearby

Air Quality

  Air Quality AQ Index Pollutant
Not available.

Snow Depth

Station Depth Elevation

Earthquake Activity

City Distance Mag. Time & Date
Minimum magnitude displayed is 2.5.

Coastal Water Temperatures

Place Temperature

Stations

Nearby Weather Stations

Station Location Temp. Windchill Dew Point Humidity Wind Precip. Elev Updated Type
                   

Watches & Warnings

There are currently no watches in effect.